sensor_id;sensor_type;location;lat;lon;timestamp;P1;durP1;ratioP1;P2;durP2;ratioP2
63193;SDS011;49289;51.670;5.624;2023-06-26T00:01:34;11.60;;;9.00;;
63193;SDS011;49289;51.670;5.624;2023-06-26T00:03:21;10.60;;;8.60;;
63193;SDS011;49289;51.670;5.624;2023-06-26T00:05:08;9.80;;;8.70;;
63193;SDS011;49289;51.670;5.624;2023-06-26T00:06:56;11.20;;;9.10;;
63193;SDS011;49289;51.670;5.624;2023-06-26T00:08:45;11.20;;;8.90;;
63193;SDS011;49289;51.670;5.624;2023-06-26T00:10:34;12.80;;;9.50;;
63193;SDS011;49289;51.670;5.624;2023-06-26T00:12:22;10.10;;;9.00;;
63193;SDS011;49289;51.670;5.624;2023-06-26T00:14:10;10.00;;;8.70;;
63193;SDS011;49289;51.670;5.624;2023-06-26T00:15:57;11.10;;;8.90;;
63193;SDS011;49289;51.670;5.624;2023-06-26T00:17:44;10.30;;;9.00;;
63193;SDS011;49289;51.670;5.624;2023-06-26T00:19:31;11.00;;;9.00;;
63193;SDS011;49289;51.670;5.624;2023-06-26T00:21:18;10.80;;;9.30;;
63193;SDS011;49289;51.670;5.624;2023-06-26T00:23:05;11.00;;;9.10;;
63193;SDS011;49289;51.670;5.624;2023-06-26T00:24:53;10.90;;;8.90;;
63193;SDS011;49289;51.670;5.624;2023-06-26T00:26:42;10.20;;;8.40;;
63193;SDS011;49289;51.670;5.624;2023-06-26T00:28:29;11.00;;;8.30;;
63193;SDS011;49289;51.670;5.624;2023-06-26T00:30:17;10.20;;;8.20;;
63193;SDS011;49289;51.670;5.624;2023-06-26T00:32:07;8.60;;;7.40;;
63193;SDS011;49289;51.670;5.624;2023-06-26T00:33:54;8.20;;;7.30;;
63193;SDS011;49289;51.670;5.624;2023-06-26T00:35:41;9.30;;;7.70;;
63193;SDS011;49289;51.670;5.624;2023-06-26T00:37:28;9.70;;;7.60;;
63193;SDS011;49289;51.670;5.624;2023-06-26T00:39:15;8.90;;;7.50;;
63193;SDS011;49289;51.670;5.624;2023-06-26T00:41:03;8.20;;;7.20;;
63193;SDS011;49289;51.670;5.624;2023-06-26T00:42:52;9.00;;;7.70;;
63193;SDS011;49289;51.670;5.624;2023-06-26T00:44:40;8.20;;;7.10;;
63193;SDS011;49289;51.670;5.624;2023-06-26T00:46:28;8.20;;;7.30;;
63193;SDS011;49289;51.670;5.624;2023-06-26T00:48:15;9.10;;;7.30;;
63193;SDS011;49289;51.670;5.624;2023-06-26T00:50:03;8.60;;;7.40;;
63193;SDS011;49289;51.670;5.624;2023-06-26T00:51:51;8.60;;;7.30;;
63193;SDS011;49289;51.670;5.624;2023-06-26T00:53:38;8.80;;;6.90;;
63193;SDS011;49289;51.670;5.624;2023-06-26T00:55:25;8.20;;;7.30;;
63193;SDS011;49289;51.670;5.624;2023-06-26T00:57:12;8.50;;;6.80;;
63193;SDS011;49289;51.670;5.624;2023-06-26T00:59:00;9.00;;;6.90;;
63193;SDS011;49289;51.670;5.624;2023-06-26T01:00:48;8.50;;;6.70;;
63193;SDS011;49289;51.670;5.624;2023-06-26T01:02:37;8.60;;;6.80;;
63193;SDS011;49289;51.670;5.624;2023-06-26T01:04:24;9.30;;;7.00;;
63193;SDS011;49289;51.670;5.624;2023-06-26T01:06:13;9.10;;;6.70;;
63193;SDS011;49289;51.670;5.624;2023-06-26T01:07:59;12.10;;;6.80;;
63193;SDS011;49289;51.670;5.624;2023-06-26T01:09:48;8.80;;;6.90;;
63193;SDS011;49289;51.670;5.624;2023-06-26T01:11:36;8.70;;;7.10;;
63193;SDS011;49289;51.670;5.624;2023-06-26T01:13:24;8.50;;;6.90;;
63193;SDS011;49289;51.670;5.624;2023-06-26T01:15:12;8.40;;;6.80;;
63193;SDS011;49289;51.670;5.624;2023-06-26T01:17:00;9.30;;;7.20;;
63193;SDS011;49289;51.670;5.624;2023-06-26T01:18:47;10.50;;;7.10;;
63193;SDS011;49289;51.670;5.624;2023-06-26T01:20:35;8.90;;;7.40;;
63193;SDS011;49289;51.670;5.624;2023-06-26T01:22:23;14.50;;;7.00;;
63193;SDS011;49289;51.670;5.624;2023-06-26T01:24:12;8.90;;;6.90;;
63193;SDS011;49289;51.670;5.624;2023-06-26T01:28:02;7.00;;;6.30;;
63193;SDS011;49289;51.670;5.624;2023-06-26T01:29:50;8.20;;;6.50;;
63193;SDS011;49289;51.670;5.624;2023-06-26T01:31:37;6.50;;;5.90;;
63193;SDS011;49289;51.670;5.624;2023-06-26T01:33:24;8.00;;;5.70;;
63193;SDS011;49289;51.670;5.624;2023-06-26T01:35:12;13.30;;;5.30;;
63193;SDS011;49289;51.670;5.624;2023-06-26T01:36:59;6.40;;;5.10;;
63193;SDS011;49289;51.670;5.624;2023-06-26T01:38:46;8.60;;;5.40;;
63193;SDS011;49289;51.670;5.624;2023-06-26T01:40:33;7.00;;;5.40;;
63193;SDS011;49289;51.670;5.624;2023-06-26T01:42:20;7.80;;;5.20;;
63193;SDS011;49289;51.670;5.624;2023-06-26T01:44:11;8.60;;;5.50;;
63193;SDS011;49289;51.670;5.624;2023-06-26T01:46:06;5.50;;;4.70;;
63193;SDS011;49289;51.670;5.624;2023-06-26T01:47:52;5.20;;;4.30;;
63193;SDS011;49289;51.670;5.624;2023-06-26T01:49:43;4.60;;;4.20;;
63193;SDS011;49289;51.670;5.624;2023-06-26T01:51:32;5.40;;;4.00;;
63193;SDS011;49289;51.670;5.624;2023-06-26T01:53:19;4.20;;;3.80;;
63193;SDS011;49289;51.670;5.624;2023-06-26T01:55:08;6.00;;;3.50;;
63193;SDS011;49289;51.670;5.624;2023-06-26T01:56:55;5.30;;;3.40;;
63193;SDS011;49289;51.670;5.624;2023-06-26T01:58:45;4.70;;;3.40;;
63193;SDS011;49289;51.670;5.624;2023-06-26T02:00:31;4.00;;;3.40;;
63193;SDS011;49289;51.670;5.624;2023-06-26T02:02:18;7.70;;;3.60;;
63193;SDS011;49289;51.670;5.624;2023-06-26T02:04:05;3.40;;;3.10;;
63193;SDS011;49289;51.670;5.624;2023-06-26T02:05:52;3.80;;;3.40;;
63193;SDS011;49289;51.670;5.624;2023-06-26T02:07:39;6.30;;;3.20;;
63193;SDS011;49289;51.670;5.624;2023-06-26T02:09:27;9.40;;;3.70;;
63193;SDS011;49289;51.670;5.624;2023-06-26T02:11:15;7.40;;;3.80;;
63193;SDS011;49289;51.670;5.624;2023-06-26T02:13:03;5.50;;;3.70;;
63193;SDS011;49289;51.670;5.624;2023-06-26T02:14:51;4.90;;;3.60;;
63193;SDS011;49289;51.670;5.624;2023-06-26T02:16:38;5.10;;;3.60;;
63193;SDS011;49289;51.670;5.624;2023-06-26T02:18:25;7.20;;;3.60;;
63193;SDS011;49289;51.670;5.624;2023-06-26T02:20:13;6.40;;;3.70;;
63193;SDS011;49289;51.670;5.624;2023-06-26T02:22:01;5.10;;;3.20;;
63193;SDS011;49289;51.670;5.624;2023-06-26T02:23:48;5.90;;;3.90;;
63193;SDS011;49289;51.670;5.624;2023-06-26T02:25:35;5.90;;;3.60;;
63193;SDS011;49289;51.670;5.624;2023-06-26T02:27:22;4.20;;;3.50;;
63193;SDS011;49289;51.670;5.624;2023-06-26T02:29:09;6.00;;;3.90;;
63193;SDS011;49289;51.670;5.624;2023-06-26T02:30:57;6.40;;;3.30;;
63193;SDS011;49289;51.670;5.624;2023-06-26T02:32:45;6.00;;;3.30;;
63193;SDS011;49289;51.670;5.624;2023-06-26T02:34:34;5.70;;;3.40;;
63193;SDS011;49289;51.670;5.624;2023-06-26T02:36:22;8.40;;;3.70;;
63193;SDS011;49289;51.670;5.624;2023-06-26T02:38:10;8.70;;;3.80;;
63193;SDS011;49289;51.670;5.624;2023-06-26T02:39:58;7.80;;;3.70;;
63193;SDS011;49289;51.670;5.624;2023-06-26T02:41:45;4.40;;;3.20;;
63193;SDS011;49289;51.670;5.624;2023-06-26T02:43:32;6.30;;;3.70;;
63193;SDS011;49289;51.670;5.624;2023-06-26T02:45:19;5.70;;;3.30;;
63193;SDS011;49289;51.670;5.624;2023-06-26T02:47:06;5.00;;;3.30;;
63193;SDS011;49289;51.670;5.624;2023-06-26T02:48:53;12.90;;;3.50;;
63193;SDS011;49289;51.670;5.624;2023-06-26T02:50:40;4.00;;;3.30;;
63193;SDS011;49289;51.670;5.624;2023-06-26T02:52:28;5.30;;;3.30;;
63193;SDS011;49289;51.670;5.624;2023-06-26T02:54:16;4.50;;;3.40;;
63193;SDS011;49289;51.670;5.624;2023-06-26T02:56:04;6.70;;;3.30;;
63193;SDS011;49289;51.670;5.624;2023-06-26T02:57:53;6.60;;;3.40;;
63193;SDS011;49289;51.670;5.624;2023-06-26T02:59:40;7.20;;;3.40;;
63193;SDS011;49289;51.670;5.624;2023-06-26T03:01:27;6.20;;;3.50;;
63193;SDS011;49289;51.670;5.624;2023-06-26T03:03:14;6.50;;;3.80;;
63193;SDS011;49289;51.670;5.624;2023-06-26T03:05:01;6.30;;;3.50;;
63193;SDS011;49289;51.670;5.624;2023-06-26T03:06:49;10.70;;;3.30;;
63193;SDS011;49289;51.670;5.624;2023-06-26T03:08:37;7.90;;;3.50;;
63193;SDS011;49289;51.670;5.624;2023-06-26T03:10:26;5.70;;;3.40;;
63193;SDS011;49289;51.670;5.624;2023-06-26T03:12:14;7.20;;;3.30;;
63193;SDS011;49289;51.670;5.624;2023-06-26T03:14:01;7.20;;;3.70;;
63193;SDS011;49289;51.670;5.624;2023-06-26T03:15:49;7.00;;;4.00;;
63193;SDS011;49289;51.670;5.624;2023-06-26T03:17:38;5.90;;;3.50;;
63193;SDS011;49289;51.670;5.624;2023-06-26T03:19:26;7.60;;;3.70;;
63193;SDS011;49289;51.670;5.624;2023-06-26T03:21:14;8.00;;;3.70;;
63193;SDS011;49289;51.670;5.624;2023-06-26T03:23:02;7.40;;;3.70;;
63193;SDS011;49289;51.670;5.624;2023-06-26T03:24:52;8.80;;;4.20;;
63193;SDS011;49289;51.670;5.624;2023-06-26T03:26:39;8.80;;;4.10;;
63193;SDS011;49289;51.670;5.624;2023-06-26T03:28:26;8.70;;;4.00;;
63193;SDS011;49289;51.670;5.624;2023-06-26T03:30:15;6.40;;;3.70;;
63193;SDS011;49289;51.670;5.624;2023-06-26T03:32:01;10.40;;;4.00;;
63193;SDS011;49289;51.670;5.624;2023-06-26T03:33:50;5.70;;;3.50;;
63193;SDS011;49289;51.670;5.624;2023-06-26T03:35:38;8.30;;;4.10;;
63193;SDS011;49289;51.670;5.624;2023-06-26T03:37:26;8.00;;;4.10;;
63193;SDS011;49289;51.670;5.624;2023-06-26T03:39:13;8.00;;;3.90;;
63193;SDS011;49289;51.670;5.624;2023-06-26T03:41:00;7.80;;;4.10;;
63193;SDS011;49289;51.670;5.624;2023-06-26T03:42:47;7.00;;;3.70;;
63193;SDS011;49289;51.670;5.624;2023-06-26T03:44:34;8.40;;;4.00;;
63193;SDS011;49289;51.670;5.624;2023-06-26T03:46:21;9.30;;;4.10;;
63193;SDS011;49289;51.670;5.624;2023-06-26T03:48:09;10.20;;;4.20;;
63193;SDS011;49289;51.670;5.624;2023-06-26T03:49:58;8.70;;;4.10;;
63193;SDS011;49289;51.670;5.624;2023-06-26T03:51:46;7.70;;;3.90;;
63193;SDS011;49289;51.670;5.624;2023-06-26T03:53:33;9.30;;;3.90;;
63193;SDS011;49289;51.670;5.624;2023-06-26T03:55:21;7.40;;;3.80;;
63193;SDS011;49289;51.670;5.624;2023-06-26T03:57:09;11.00;;;4.20;;
63193;SDS011;49289;51.670;5.624;2023-06-26T03:58:56;7.80;;;3.80;;
63193;SDS011;49289;51.670;5.624;2023-06-26T04:00:43;9.10;;;4.20;;
63193;SDS011;49289;51.670;5.624;2023-06-26T04:02:30;7.90;;;4.10;;
63193;SDS011;49289;51.670;5.624;2023-06-26T04:04:17;7.50;;;4.10;;
63193;SDS011;49289;51.670;5.624;2023-06-26T04:06:04;6.60;;;3.80;;
63193;SDS011;49289;51.670;5.624;2023-06-26T04:07:55;8.10;;;4.00;;
63193;SDS011;49289;51.670;5.624;2023-06-26T04:09:43;10.10;;;4.30;;
63193;SDS011;49289;51.670;5.624;2023-06-26T04:11:31;7.90;;;4.20;;
63193;SDS011;49289;51.670;5.624;2023-06-26T04:13:18;7.80;;;4.20;;
63193;SDS011;49289;51.670;5.624;2023-06-26T04:15:05;9.20;;;4.20;;
63193;SDS011;49289;51.670;5.624;2023-06-26T04:16:54;9.20;;;4.30;;
63193;SDS011;49289;51.670;5.624;2023-06-26T04:18:41;6.90;;;4.10;;
63193;SDS011;49289;51.670;5.624;2023-06-26T04:20:29;6.30;;;3.90;;
63193;SDS011;49289;51.670;5.624;2023-06-26T04:22:16;7.30;;;3.90;;
63193;SDS011;49289;51.670;5.624;2023-06-26T04:24:03;8.30;;;4.20;;
63193;SDS011;49289;51.670;5.624;2023-06-26T04:25:52;10.20;;;4.80;;
63193;SDS011;49289;51.670;5.624;2023-06-26T04:27:39;7.90;;;4.20;;
63193;SDS011;49289;51.670;5.624;2023-06-26T04:29:26;10.80;;;4.20;;
63193;SDS011;49289;51.670;5.624;2023-06-26T04:31:13;9.00;;;4.70;;
63193;SDS011;49289;51.670;5.624;2023-06-26T04:33:00;9.80;;;4.70;;
63193;SDS011;49289;51.670;5.624;2023-06-26T04:34:47;11.20;;;4.00;;
63193;SDS011;49289;51.670;5.624;2023-06-26T04:36:34;8.60;;;4.30;;
63193;SDS011;49289;51.670;5.624;2023-06-26T04:38:21;9.00;;;4.40;;
63193;SDS011;49289;51.670;5.624;2023-06-26T04:40:09;10.40;;;4.60;;
63193;SDS011;49289;51.670;5.624;2023-06-26T04:41:56;11.90;;;4.10;;
63193;SDS011;49289;51.670;5.624;2023-06-26T04:43:43;12.00;;;4.30;;
63193;SDS011;49289;51.670;5.624;2023-06-26T04:45:31;11.60;;;4.30;;
63193;SDS011;49289;51.670;5.624;2023-06-26T04:47:19;8.80;;;4.50;;
63193;SDS011;49289;51.670;5.624;2023-06-26T04:49:08;10.50;;;4.50;;
63193;SDS011;49289;51.670;5.624;2023-06-26T04:50:55;9.90;;;3.90;;
63193;SDS011;49289;51.670;5.624;2023-06-26T04:52:42;10.60;;;4.90;;
63193;SDS011;49289;51.670;5.624;2023-06-26T04:54:29;10.80;;;4.90;;
63193;SDS011;49289;51.670;5.624;2023-06-26T04:56:16;6.20;;;4.20;;
63193;SDS011;49289;51.670;5.624;2023-06-26T04:58:04;8.30;;;4.20;;
63193;SDS011;49289;51.670;5.624;2023-06-26T04:59:52;9.90;;;4.50;;
63193;SDS011;49289;51.670;5.624;2023-06-26T05:01:40;11.80;;;4.40;;
63193;SDS011;49289;51.670;5.624;2023-06-26T05:03:29;11.90;;;4.60;;
63193;SDS011;49289;51.670;5.624;2023-06-26T05:05:17;11.80;;;4.90;;
63193;SDS011;49289;51.670;5.624;2023-06-26T05:07:04;10.80;;;4.80;;
63193;SDS011;49289;51.670;5.624;2023-06-26T05:08:51;11.60;;;4.70;;
63193;SDS011;49289;51.670;5.624;2023-06-26T05:10:40;10.50;;;4.20;;
63193;SDS011;49289;51.670;5.624;2023-06-26T05:12:27;9.90;;;4.80;;
63193;SDS011;49289;51.670;5.624;2023-06-26T05:14:14;11.90;;;4.50;;
63193;SDS011;49289;51.670;5.624;2023-06-26T05:16:01;13.00;;;5.00;;
63193;SDS011;49289;51.670;5.624;2023-06-26T05:17:49;9.50;;;4.20;;
63193;SDS011;49289;51.670;5.624;2023-06-26T05:19:37;14.20;;;4.50;;
63193;SDS011;49289;51.670;5.624;2023-06-26T05:21:26;14.60;;;5.50;;
63193;SDS011;49289;51.670;5.624;2023-06-26T05:23:14;13.10;;;4.90;;
63193;SDS011;49289;51.670;5.624;2023-06-26T05:25:03;12.60;;;4.20;;
63193;SDS011;49289;51.670;5.624;2023-06-26T05:26:52;12.30;;;4.20;;
63193;SDS011;49289;51.670;5.624;2023-06-26T05:28:41;12.70;;;4.60;;
63193;SDS011;49289;51.670;5.624;2023-06-26T05:30:30;18.40;;;4.50;;
63193;SDS011;49289;51.670;5.624;2023-06-26T05:32:19;17.90;;;6.10;;
63193;SDS011;49289;51.670;5.624;2023-06-26T05:34:06;16.30;;;4.90;;
63193;SDS011;49289;51.670;5.624;2023-06-26T05:35:55;16.70;;;5.10;;
63193;SDS011;49289;51.670;5.624;2023-06-26T05:37:42;21.00;;;4.90;;
63193;SDS011;49289;51.670;5.624;2023-06-26T05:39:29;11.70;;;4.20;;
63193;SDS011;49289;51.670;5.624;2023-06-26T05:41:18;10.90;;;4.30;;
63193;SDS011;49289;51.670;5.624;2023-06-26T05:43:05;11.30;;;4.10;;
63193;SDS011;49289;51.670;5.624;2023-06-26T05:44:53;8.90;;;3.80;;
63193;SDS011;49289;51.670;5.624;2023-06-26T05:46:40;11.10;;;4.50;;
63193;SDS011;49289;51.670;5.624;2023-06-26T05:48:27;10.30;;;4.40;;
63193;SDS011;49289;51.670;5.624;2023-06-26T05:50:17;15.40;;;4.60;;
63193;SDS011;49289;51.670;5.624;2023-06-26T05:52:04;11.00;;;4.60;;
63193;SDS011;49289;51.670;5.624;2023-06-26T05:53:53;11.60;;;4.40;;
63193;SDS011;49289;51.670;5.624;2023-06-26T05:55:40;13.50;;;4.60;;
63193;SDS011;49289;51.670;5.624;2023-06-26T05:57:28;9.70;;;3.80;;
63193;SDS011;49289;51.670;5.624;2023-06-26T05:59:16;12.00;;;4.30;;
63193;SDS011;49289;51.670;5.624;2023-06-26T06:01:03;11.00;;;4.40;;
63193;SDS011;49289;51.670;5.624;2023-06-26T06:02:50;14.60;;;4.20;;
63193;SDS011;49289;51.670;5.624;2023-06-26T06:04:37;16.10;;;4.60;;
63193;SDS011;49289;51.670;5.624;2023-06-26T06:06:24;15.40;;;4.70;;
63193;SDS011;49289;51.670;5.624;2023-06-26T06:08:11;12.10;;;4.30;;
63193;SDS011;49289;51.670;5.624;2023-06-26T06:09:58;13.80;;;4.40;;
63193;SDS011;49289;51.670;5.624;2023-06-26T06:11:45;11.80;;;3.90;;
63193;SDS011;49289;51.670;5.624;2023-06-26T06:13:32;15.60;;;4.00;;
63193;SDS011;49289;51.670;5.624;2023-06-26T06:15:19;12.30;;;4.00;;
63193;SDS011;49289;51.670;5.624;2023-06-26T06:17:08;14.50;;;4.10;;
63193;SDS011;49289;51.670;5.624;2023-06-26T06:18:55;10.90;;;3.90;;
63193;SDS011;49289;51.670;5.624;2023-06-26T06:20:42;12.90;;;4.10;;
63193;SDS011;49289;51.670;5.624;2023-06-26T06:22:29;15.10;;;4.40;;
63193;SDS011;49289;51.670;5.624;2023-06-26T06:24:16;13.50;;;4.20;;
63193;SDS011;49289;51.670;5.624;2023-06-26T06:26:03;10.00;;;3.70;;
63193;SDS011;49289;51.670;5.624;2023-06-26T06:27:50;10.30;;;4.00;;
63193;SDS011;49289;51.670;5.624;2023-06-26T06:29:37;9.20;;;3.80;;
63193;SDS011;49289;51.670;5.624;2023-06-26T06:31:24;13.70;;;3.80;;
63193;SDS011;49289;51.670;5.624;2023-06-26T06:33:12;10.40;;;3.70;;
63193;SDS011;49289;51.670;5.624;2023-06-26T06:35:00;10.00;;;3.70;;
63193;SDS011;49289;51.670;5.624;2023-06-26T06:36:49;8.70;;;3.70;;
63193;SDS011;49289;51.670;5.624;2023-06-26T06:38:37;11.50;;;3.90;;
63193;SDS011;49289;51.670;5.624;2023-06-26T06:40:25;8.80;;;3.40;;
63193;SDS011;49289;51.670;5.624;2023-06-26T06:42:13;9.70;;;3.90;;
63193;SDS011;49289;51.670;5.624;2023-06-26T06:44:00;15.90;;;4.50;;
63193;SDS011;49289;51.670;5.624;2023-06-26T06:45:47;8.90;;;3.80;;
63193;SDS011;49289;51.670;5.624;2023-06-26T06:47:35;7.90;;;3.00;;
63193;SDS011;49289;51.670;5.624;2023-06-26T06:49:22;6.70;;;2.80;;
63193;SDS011;49289;51.670;5.624;2023-06-26T06:51:10;7.50;;;2.80;;
63193;SDS011;49289;51.670;5.624;2023-06-26T06:52:59;5.70;;;2.80;;
63193;SDS011;49289;51.670;5.624;2023-06-26T06:54:58;5.00;;;2.60;;
63193;SDS011;49289;51.670;5.624;2023-06-26T06:56:47;9.00;;;3.20;;
63193;SDS011;49289;51.670;5.624;2023-06-26T06:58:35;8.10;;;3.50;;
63193;SDS011;49289;51.670;5.624;2023-06-26T07:00:23;6.50;;;3.10;;
63193;SDS011;49289;51.670;5.624;2023-06-26T07:02:10;6.40;;;3.00;;
63193;SDS011;49289;51.670;5.624;2023-06-26T07:03:57;5.50;;;3.10;;
63193;SDS011;49289;51.670;5.624;2023-06-26T07:05:44;5.20;;;3.00;;
63193;SDS011;49289;51.670;5.624;2023-06-26T07:07:32;7.10;;;3.20;;
63193;SDS011;49289;51.670;5.624;2023-06-26T07:09:20;8.10;;;3.00;;
63193;SDS011;49289;51.670;5.624;2023-06-26T07:11:07;8.70;;;3.20;;
63193;SDS011;49289;51.670;5.624;2023-06-26T07:12:54;6.70;;;3.10;;
63193;SDS011;49289;51.670;5.624;2023-06-26T07:14:42;4.60;;;3.00;;
63193;SDS011;49289;51.670;5.624;2023-06-26T07:16:30;8.60;;;3.20;;
63193;SDS011;49289;51.670;5.624;2023-06-26T07:18:18;6.40;;;2.80;;
63193;SDS011;49289;51.670;5.624;2023-06-26T07:20:06;7.80;;;3.00;;
63193;SDS011;49289;51.670;5.624;2023-06-26T07:21:54;7.70;;;2.90;;
63193;SDS011;49289;51.670;5.624;2023-06-26T07:23:41;6.80;;;2.70;;
63193;SDS011;49289;51.670;5.624;2023-06-26T07:25:28;8.50;;;3.20;;
63193;SDS011;49289;51.670;5.624;2023-06-26T07:27:15;7.20;;;3.30;;
63193;SDS011;49289;51.670;5.624;2023-06-26T07:29:02;7.90;;;3.40;;
63193;SDS011;49289;51.670;5.624;2023-06-26T07:30:50;7.50;;;3.20;;
63193;SDS011;49289;51.670;5.624;2023-06-26T07:32:38;8.80;;;3.30;;
63193;SDS011;49289;51.670;5.624;2023-06-26T07:34:25;6.30;;;3.10;;
63193;SDS011;49289;51.670;5.624;2023-06-26T07:36:13;7.50;;;3.20;;
63193;SDS011;49289;51.670;5.624;2023-06-26T07:38:01;7.80;;;3.20;;
63193;SDS011;49289;51.670;5.624;2023-06-26T07:39:50;4.90;;;3.00;;
63193;SDS011;49289;51.670;5.624;2023-06-26T07:41:38;5.50;;;2.80;;
63193;SDS011;49289;51.670;5.624;2023-06-26T07:43:26;5.50;;;2.70;;
63193;SDS011;49289;51.670;5.624;2023-06-26T07:45:14;4.10;;;3.00;;
63193;SDS011;49289;51.670;5.624;2023-06-26T07:47:03;4.90;;;2.90;;
63193;SDS011;49289;51.670;5.624;2023-06-26T07:48:51;5.30;;;3.00;;
63193;SDS011;49289;51.670;5.624;2023-06-26T07:50:38;7.10;;;3.10;;
63193;SDS011;49289;51.670;5.624;2023-06-26T07:52:25;4.30;;;2.90;;
63193;SDS011;49289;51.670;5.624;2023-06-26T07:54:12;5.00;;;3.00;;
63193;SDS011;49289;51.670;5.624;2023-06-26T07:55:59;5.10;;;2.90;;
63193;SDS011;49289;51.670;5.624;2023-06-26T07:57:48;7.10;;;3.30;;
63193;SDS011;49289;51.670;5.624;2023-06-26T07:59:35;6.70;;;2.90;;
63193;SDS011;49289;51.670;5.624;2023-06-26T08:01:23;6.00;;;2.90;;
63193;SDS011;49289;51.670;5.624;2023-06-26T08:03:09;6.80;;;2.90;;
63193;SDS011;49289;51.670;5.624;2023-06-26T08:04:56;4.80;;;3.00;;
63193;SDS011;49289;51.670;5.624;2023-06-26T08:06:43;5.90;;;2.90;;
63193;SDS011;49289;51.670;5.624;2023-06-26T08:08:30;5.50;;;2.80;;
63193;SDS011;49289;51.670;5.624;2023-06-26T08:10:17;4.10;;;3.10;;
63193;SDS011;49289;51.670;5.624;2023-06-26T08:12:06;6.00;;;3.10;;
63193;SDS011;49289;51.670;5.624;2023-06-26T08:13:53;9.50;;;3.40;;
63193;SDS011;49289;51.670;5.624;2023-06-26T08:15:40;5.70;;;2.90;;
63193;SDS011;49289;51.670;5.624;2023-06-26T08:17:27;6.80;;;3.20;;
63193;SDS011;49289;51.670;5.624;2023-06-26T08:19:14;5.10;;;2.90;;
63193;SDS011;49289;51.670;5.624;2023-06-26T08:21:01;8.20;;;3.10;;
63193;SDS011;49289;51.670;5.624;2023-06-26T08:22:48;4.20;;;3.30;;
63193;SDS011;49289;51.670;5.624;2023-06-26T08:24:35;5.20;;;3.00;;
63193;SDS011;49289;51.670;5.624;2023-06-26T08:26:23;6.30;;;3.10;;
63193;SDS011;49289;51.670;5.624;2023-06-26T08:28:11;5.10;;;3.10;;
63193;SDS011;49289;51.670;5.624;2023-06-26T08:29:58;5.00;;;2.70;;
63193;SDS011;49289;51.670;5.624;2023-06-26T08:31:45;8.50;;;2.30;;
63193;SDS011;49289;51.670;5.624;2023-06-26T08:33:32;4.50;;;2.30;;
63193;SDS011;49289;51.670;5.624;2023-06-26T08:35:19;3.80;;;1.80;;
63193;SDS011;49289;51.670;5.624;2023-06-26T08:37:07;3.50;;;1.70;;
63193;SDS011;49289;51.670;5.624;2023-06-26T08:38:56;3.70;;;1.90;;
63193;SDS011;49289;51.670;5.624;2023-06-26T08:40:44;5.30;;;1.80;;
63193;SDS011;49289;51.670;5.624;2023-06-26T08:42:31;2.50;;;1.60;;
63193;SDS011;49289;51.670;5.624;2023-06-26T08:44:18;2.90;;;1.90;;
63193;SDS011;49289;51.670;5.624;2023-06-26T08:46:05;5.40;;;1.90;;
63193;SDS011;49289;51.670;5.624;2023-06-26T08:47:53;4.80;;;1.80;;
63193;SDS011;49289;51.670;5.624;2023-06-26T08:49:44;2.00;;;1.60;;
63193;SDS011;49289;51.670;5.624;2023-06-26T08:51:30;3.50;;;1.50;;
63193;SDS011;49289;51.670;5.624;2023-06-26T08:53:20;3.60;;;1.50;;
63193;SDS011;49289;51.670;5.624;2023-06-26T08:55:06;8.00;;;1.70;;
63193;SDS011;49289;51.670;5.624;2023-06-26T08:56:52;6.10;;;1.70;;
63193;SDS011;49289;51.670;5.624;2023-06-26T08:58:39;3.80;;;1.40;;
63193;SDS011;49289;51.670;5.624;2023-06-26T09:00:27;5.10;;;1.90;;
63193;SDS011;49289;51.670;5.624;2023-06-26T09:02:15;3.00;;;1.40;;
63193;SDS011;49289;51.670;5.624;2023-06-26T09:04:02;4.20;;;1.60;;
63193;SDS011;49289;51.670;5.624;2023-06-26T09:05:49;2.40;;;1.40;;
63193;SDS011;49289;51.670;5.624;2023-06-26T09:07:36;2.50;;;1.50;;
63193;SDS011;49289;51.670;5.624;2023-06-26T09:09:25;3.80;;;1.40;;
63193;SDS011;49289;51.670;5.624;2023-06-26T09:11:12;1.30;;;1.20;;
63193;SDS011;49289;51.670;5.624;2023-06-26T09:13:01;1.60;;;1.40;;
63193;SDS011;49289;51.670;5.624;2023-06-26T09:14:49;3.70;;;1.20;;
63193;SDS011;49289;51.670;5.624;2023-06-26T09:16:36;4.10;;;1.30;;
63193;SDS011;49289;51.670;5.624;2023-06-26T09:18:26;2.30;;;1.30;;
63193;SDS011;49289;51.670;5.624;2023-06-26T09:20:14;5.30;;;1.40;;
63193;SDS011;49289;51.670;5.624;2023-06-26T09:22:02;2.90;;;1.40;;
63193;SDS011;49289;51.670;5.624;2023-06-26T09:23:51;2.60;;;1.20;;
63193;SDS011;49289;51.670;5.624;2023-06-26T09:25:39;3.00;;;1.20;;
63193;SDS011;49289;51.670;5.624;2023-06-26T09:27:27;3.20;;;1.20;;
63193;SDS011;49289;51.670;5.624;2023-06-26T09:29:14;3.80;;;1.30;;
63193;SDS011;49289;51.670;5.624;2023-06-26T09:31:01;3.00;;;1.40;;
63193;SDS011;49289;51.670;5.624;2023-06-26T09:32:48;3.40;;;1.40;;
63193;SDS011;49289;51.670;5.624;2023-06-26T09:34:41;1.40;;;1.10;;
63193;SDS011;49289;51.670;5.624;2023-06-26T09:36:27;4.00;;;1.50;;
63193;SDS011;49289;51.670;5.624;2023-06-26T09:38:12;2.30;;;1.10;;
63193;SDS011;49289;51.670;5.624;2023-06-26T09:39:59;4.00;;;1.40;;
63193;SDS011;49289;51.670;5.624;2023-06-26T09:41:46;3.20;;;1.20;;
63193;SDS011;49289;51.670;5.624;2023-06-26T09:43:34;1.90;;;1.30;;
63193;SDS011;49289;51.670;5.624;2023-06-26T09:45:23;2.50;;;1.30;;
63193;SDS011;49289;51.670;5.624;2023-06-26T09:47:10;4.20;;;1.40;;
63193;SDS011;49289;51.670;5.624;2023-06-26T09:49:03;2.80;;;1.10;;
63193;SDS011;49289;51.670;5.624;2023-06-26T09:50:50;2.40;;;1.20;;
63193;SDS011;49289;51.670;5.624;2023-06-26T09:52:37;1.90;;;1.10;;
63193;SDS011;49289;51.670;5.624;2023-06-26T09:54:24;2.70;;;1.30;;
63193;SDS011;49289;51.670;5.624;2023-06-26T09:56:14;2.40;;;1.10;;
63193;SDS011;49289;51.670;5.624;2023-06-26T09:58:01;4.10;;;1.40;;
63193;SDS011;49289;51.670;5.624;2023-06-26T09:59:49;2.20;;;1.30;;
63193;SDS011;49289;51.670;5.624;2023-06-26T10:01:39;4.20;;;1.20;;
63193;SDS011;49289;51.670;5.624;2023-06-26T10:03:26;3.40;;;1.20;;
63193;SDS011;49289;51.670;5.624;2023-06-26T10:05:13;3.50;;;1.30;;
63193;SDS011;49289;51.670;5.624;2023-06-26T10:07:02;2.70;;;1.40;;
63193;SDS011;49289;51.670;5.624;2023-06-26T10:08:51;2.50;;;1.30;;
63193;SDS011;49289;51.670;5.624;2023-06-26T10:10:39;3.10;;;1.30;;
63193;SDS011;49289;51.670;5.624;2023-06-26T10:12:26;2.40;;;1.20;;
63193;SDS011;49289;51.670;5.624;2023-06-26T10:14:13;4.90;;;1.50;;
63193;SDS011;49289;51.670;5.624;2023-06-26T10:16:00;4.90;;;1.20;;
63193;SDS011;49289;51.670;5.624;2023-06-26T10:17:48;2.50;;;1.40;;
63193;SDS011;49289;51.670;5.624;2023-06-26T10:19:35;2.60;;;1.30;;
63193;SDS011;49289;51.670;5.624;2023-06-26T10:21:22;3.90;;;1.40;;
63193;SDS011;49289;51.670;5.624;2023-06-26T10:23:09;2.10;;;1.20;;
63193;SDS011;49289;51.670;5.624;2023-06-26T10:24:57;5.50;;;1.50;;
63193;SDS011;49289;51.670;5.624;2023-06-26T10:26:44;4.70;;;1.30;;
63193;SDS011;49289;51.670;5.624;2023-06-26T10:28:31;5.00;;;1.50;;
63193;SDS011;49289;51.670;5.624;2023-06-26T10:30:21;4.30;;;1.10;;
63193;SDS011;49289;51.670;5.624;2023-06-26T10:32:10;2.20;;;1.30;;
63193;SDS011;49289;51.670;5.624;2023-06-26T10:33:55;1.00;;;0.90;;
63193;SDS011;49289;51.670;5.624;2023-06-26T10:35:46;3.30;;;1.10;;
63193;SDS011;49289;51.670;5.624;2023-06-26T10:37:46;6.90;;;1.40;;
63193;SDS011;49289;51.670;5.624;2023-06-26T10:39:33;2.10;;;1.00;;
63193;SDS011;49289;51.670;5.624;2023-06-26T10:41:36;3.40;;;1.20;;
63193;SDS011;49289;51.670;5.624;2023-06-26T10:43:29;3.00;;;1.30;;
63193;SDS011;49289;51.670;5.624;2023-06-26T10:45:19;1.90;;;1.10;;
63193;SDS011;49289;51.670;5.624;2023-06-26T10:47:04;2.00;;;1.10;;
63193;SDS011;49289;51.670;5.624;2023-06-26T10:49:03;3.20;;;1.10;;
63193;SDS011;49289;51.670;5.624;2023-06-26T10:50:52;1.80;;;1.00;;